sensor_id;sensor_type;location;lat;lon;timestamp;pressure;altitude;pressure_sealevel;temperature;humidity
9141;BME280;46330;50.822;7.126;2023-12-28T00:00:27;100563.00;;;9.22;77.62
9141;BME280;46330;50.822;7.126;2023-12-28T00:02:55;100568.22;;;9.24;77.63
9141;BME280;46330;50.822;7.126;2023-12-28T00:05:23;100578.69;;;9.19;79.04
9141;BME280;46330;50.822;7.126;2023-12-28T00:07:51;100567.38;;;9.20;78.41
9141;BME280;46330;50.822;7.126;2023-12-28T00:10:26;100570.00;;;9.20;78.41
9141;BME280;46330;50.822;7.126;2023-12-28T00:12:54;100569.13;;;9.19;78.86
9141;BME280;46330;50.822;7.126;2023-12-28T00:15:23;100583.88;;;9.24;78.28
9141;BME280;46330;50.822;7.126;2023-12-28T00:17:51;100588.22;;;9.25;79.24
9141;BME280;46330;50.822;7.126;2023-12-28T00:20:19;100583.00;;;9.23;79.28
9141;BME280;46330;50.822;7.126;2023-12-28T00:22:47;100588.16;;;9.28;79.58
9141;BME280;46330;50.822;7.126;2023-12-28T00:25:15;100592.47;;;9.29;80.75
9141;BME280;46330;50.822;7.126;2023-12-28T00:27:43;100586.44;;;9.27;80.52
9141;BME280;46330;50.822;7.126;2023-12-28T00:30:13;100591.56;;;9.31;81.47
9141;BME280;46330;50.822;7.126;2023-12-28T00:32:44;100601.97;;;9.36;84.15
9141;BME280;46330;50.822;7.126;2023-12-28T00:35:12;100602.00;;;9.33;86.02
9141;BME280;46330;50.822;7.126;2023-12-28T00:37:40;100607.13;;;9.37;86.82
9141;BME280;46330;50.822;7.126;2023-12-28T00:40:09;100604.59;;;9.33;89.39
9141;BME280;46330;50.822;7.126;2023-12-28T00:42:37;100609.88;;;9.30;91.88
9141;BME280;46330;50.822;7.126;2023-12-28T00:45:08;100612.63;;;9.19;93.75
9141;BME280;46330;50.822;7.126;2023-12-28T00:47:36;100621.41;;;9.13;95.24
9141;BME280;46330;50.822;7.126;2023-12-28T00:50:06;100624.09;;;9.09;95.12
9141;BME280;46330;50.822;7.126;2023-12-28T00:52:34;100615.41;;;9.07;95.62
9141;BME280;46330;50.822;7.126;2023-12-28T00:55:02;100616.31;;;9.06;95.80
9141;BME280;46330;50.822;7.126;2023-12-28T00:57:30;100609.31;;;9.08;95.76
9141;BME280;46330;50.822;7.126;2023-12-28T01:00:00;100618.03;;;9.07;96.28
9141;BME280;46330;50.822;7.126;2023-12-28T01:02:28;100618.06;;;9.05;96.74
9141;BME280;46330;50.822;7.126;2023-12-28T01:04:56;100630.25;;;9.03;96.52
9141;BME280;46330;50.822;7.126;2023-12-28T01:07:26;100637.19;;;9.04;96.94
9141;BME280;46330;50.822;7.126;2023-12-28T01:09:54;100642.38;;;9.07;96.04
9141;BME280;46330;50.822;7.126;2023-12-28T01:12:23;100636.31;;;9.05;96.85
9141;BME280;46330;50.822;7.126;2023-12-28T01:14:52;100651.06;;;9.06;97.15
9141;BME280;46330;50.822;7.126;2023-12-28T01:17:20;100648.50;;;9.03;97.82
9141;BME280;46330;50.822;7.126;2023-12-28T01:19:48;100662.41;;;9.05;97.12
9141;BME280;46330;50.822;7.126;2023-12-28T01:22:16;100653.69;;;9.06;97.67
9141;BME280;46330;50.822;7.126;2023-12-28T01:24:47;100651.06;;;9.06;97.16
9141;BME280;46330;50.822;7.126;2023-12-28T01:27:16;100658.03;;;9.09;97.20
9141;BME280;46330;50.822;7.126;2023-12-28T01:29:44;100665.84;;;9.09;97.20
9141;BME280;46330;50.822;7.126;2023-12-28T01:32:12;100674.50;;;9.09;97.17
9141;BME280;46330;50.822;7.126;2023-12-28T01:34:40;100684.06;;;9.10;97.16
9141;BME280;46330;50.822;7.126;2023-12-28T01:37:09;100666.63;;;9.14;96.63
9141;BME280;46330;50.822;7.126;2023-12-28T01:39:37;100673.59;;;9.15;96.69
9141;BME280;46330;50.822;7.126;2023-12-28T01:42:06;100677.88;;;9.19;96.41
9141;BME280;46330;50.822;7.126;2023-12-28T01:44:34;100680.50;;;9.17;97.29
9141;BME280;46330;50.822;7.126;2023-12-28T01:47:02;100680.50;;;9.17;96.76
9141;BME280;46330;50.822;7.126;2023-12-28T01:49:31;100685.72;;;9.17;96.50
9141;BME280;46330;50.822;7.126;2023-12-28T01:52:00;100684.78;;;9.22;96.56
9141;BME280;46330;50.822;7.126;2023-12-28T01:54:29;100681.31;;;9.23;96.48
9141;BME280;46330;50.822;7.126;2023-12-28T01:56:57;100687.41;;;9.22;96.87
9141;BME280;46330;50.822;7.126;2023-12-28T01:59:29;100694.34;;;9.23;96.75
9141;BME280;46330;50.822;7.126;2023-12-28T02:01:57;100689.16;;;9.21;97.23
9141;BME280;46330;50.822;7.126;2023-12-28T02:04:25;100683.94;;;9.21;96.33
9141;BME280;46330;50.822;7.126;2023-12-28T02:06:56;100691.84;;;9.15;96.85
9141;BME280;46330;50.822;7.126;2023-12-28T02:09:25;100708.44;;;9.09;96.22
9141;BME280;46330;50.822;7.126;2023-12-28T02:11:54;100700.66;;;9.05;95.47
9141;BME280;46330;50.822;7.126;2023-12-28T02:14:22;100690.25;;;9.03;95.55
9141;BME280;46330;50.822;7.126;2023-12-28T02:17:00;100682.50;;;8.97;95.97
9141;BME280;46330;50.822;7.126;2023-12-28T02:19:41;100692.16;;;8.89;96.28
9141;BME280;46330;50.822;7.126;2023-12-28T02:22:12;100689.56;;;8.88;96.82
9141;BME280;46330;50.822;7.126;2023-12-28T02:24:59;100679.16;;;8.85;97.26
9141;BME280;46330;50.822;7.126;2023-12-28T02:27:27;100695.63;;;8.88;97.10
9141;BME280;46330;50.822;7.126;2023-12-28T02:29:55;100694.75;;;8.91;97.68
9141;BME280;46330;50.822;7.126;2023-12-28T02:32:28;100695.69;;;8.87;97.69
9141;BME280;46330;50.822;7.126;2023-12-28T02:35:17;100692.25;;;8.82;97.92
9141;BME280;46330;50.822;7.126;2023-12-28T02:37:47;100702.66;;;8.82;98.06
9141;BME280;46330;50.822;7.126;2023-12-28T02:40:19;100697.41;;;8.86;98.43
9141;BME280;46330;50.822;7.126;2023-12-28T02:42:47;100709.63;;;8.81;98.62
9141;BME280;46330;50.822;7.126;2023-12-28T02:45:15;100702.75;;;8.77;99.17
9141;BME280;46330;50.822;7.126;2023-12-28T02:47:44;100707.91;;;8.80;99.07
9141;BME280;46330;50.822;7.126;2023-12-28T02:50:12;100687.97;;;8.78;99.02
9141;BME280;46330;50.822;7.126;2023-12-28T02:52:40;100698.38;;;8.76;99.20
9141;BME280;46330;50.822;7.126;2023-12-28T02:55:08;100688.03;;;8.70;99.85
9141;BME280;46330;50.822;7.126;2023-12-28T02:57:38;100696.78;;;8.64;100.00
9141;BME280;46330;50.822;7.126;2023-12-28T03:00:06;100689.81;;;8.67;100.00
9141;BME280;46330;50.822;7.126;2023-12-28T03:02:35;100667.31;;;8.58;100.00
9141;BME280;46330;50.822;7.126;2023-12-28T03:05:05;100675.19;;;8.50;100.00
9141;BME280;46330;50.822;7.126;2023-12-28T03:07:34;100667.47;;;8.43;100.00
9141;BME280;46330;50.822;7.126;2023-12-28T03:10:04;100683.97;;;8.43;100.00
9141;BME280;46330;50.822;7.126;2023-12-28T03:12:32;100675.34;;;8.37;100.00
9141;BME280;46330;50.822;7.126;2023-12-28T03:15:01;100681.47;;;8.33;100.00
9141;BME280;46330;50.822;7.126;2023-12-28T03:17:29;100684.97;;;8.30;100.00
9141;BME280;46330;50.822;7.126;2023-12-28T03:19:59;100691.06;;;8.28;100.00
9141;BME280;46330;50.822;7.126;2023-12-28T03:22:27;100686.69;;;8.27;100.00
9141;BME280;46330;50.822;7.126;2023-12-28T03:24:55;100684.13;;;8.24;100.00
9141;BME280;46330;50.822;7.126;2023-12-28T03:27:23;100672.84;;;8.23;100.00
9141;BME280;46330;50.822;7.126;2023-12-28T03:29:51;100678.94;;;8.19;100.00
9141;BME280;46330;50.822;7.126;2023-12-28T03:32:20;100672.03;;;8.18;100.00
9141;BME280;46330;50.822;7.126;2023-12-28T03:34:49;100678.09;;;8.19;100.00
9141;BME280;46330;50.822;7.126;2023-12-28T03:37:17;100672.03;;;8.17;100.00
9141;BME280;46330;50.822;7.126;2023-12-28T03:39:45;100672.91;;;8.19;100.00
9141;BME280;46330;50.822;7.126;2023-12-28T03:42:13;100663.31;;;8.21;100.00
9141;BME280;46330;50.822;7.126;2023-12-28T03:44:41;100655.50;;;8.21;100.00
9141;BME280;46330;50.822;7.126;2023-12-28T03:47:09;100673.69;;;8.22;100.00
9141;BME280;46330;50.822;7.126;2023-12-28T03:49:39;100677.22;;;8.21;100.00
9141;BME280;46330;50.822;7.126;2023-12-28T03:52:07;100669.38;;;8.21;100.00
9141;BME280;46330;50.822;7.126;2023-12-28T03:54:35;100675.44;;;8.25;100.00
9141;BME280;46330;50.822;7.126;2023-12-28T03:57:03;100672.81;;;8.26;100.00
9141;BME280;46330;50.822;7.126;2023-12-28T03:59:31;100678.88;;;8.27;100.00
9141;BME280;46330;50.822;7.126;2023-12-28T04:01:59;100670.19;;;8.29;100.00
9141;BME280;46330;50.822;7.126;2023-12-28T04:04:27;100676.28;;;8.27;100.00
9141;BME280;46330;50.822;7.126;2023-12-28T04:06:57;100665.84;;;8.28;100.00
9141;BME280;46330;50.822;7.126;2023-12-28T04:09:24;100657.16;;;8.29;100.00
9141;BME280;46330;50.822;7.126;2023-12-28T04:11:51;100668.47;;;8.30;100.00
9141;BME280;46330;50.822;7.126;2023-12-28T04:14:19;100664.09;;;8.33;100.00
9141;BME280;46330;50.822;7.126;2023-12-28T04:16:47;100663.22;;;8.33;100.00
9141;BME280;46330;50.822;7.126;2023-12-28T04:19:15;100658.88;;;8.32;100.00
9141;BME280;46330;50.822;7.126;2023-12-28T04:21:46;100669.31;;;8.32;100.00
9141;BME280;46330;50.822;7.126;2023-12-28T04:24:16;100660.66;;;8.30;100.00
9141;BME280;46330;50.822;7.126;2023-12-28T04:26:44;100666.72;;;8.27;100.00
9141;BME280;46330;50.822;7.126;2023-12-28T04:29:11;100654.56;;;8.26;100.00
9141;BME280;46330;50.822;7.126;2023-12-28T04:31:40;100660.66;;;8.28;100.00
9141;BME280;46330;50.822;7.126;2023-12-28T04:34:08;100665.00;;;8.26;100.00
9141;BME280;46330;50.822;7.126;2023-12-28T04:36:40;100666.72;;;8.26;100.00
9141;BME280;46330;50.822;7.126;2023-12-28T04:39:08;100654.56;;;8.31;100.00
9141;BME280;46330;50.822;7.126;2023-12-28T04:41:37;100651.97;;;8.31;100.00
9141;BME280;46330;50.822;7.126;2023-12-28T04:44:05;100649.28;;;8.37;100.00
9141;BME280;46330;50.822;7.126;2023-12-28T04:46:37;100652.72;;;8.43;100.00
9141;BME280;46330;50.822;7.126;2023-12-28T04:49:07;100664.00;;;8.42;100.00
9141;BME280;46330;50.822;7.126;2023-12-28T04:51:35;100655.31;;;8.43;100.00
9141;BME280;46330;50.822;7.126;2023-12-28T04:54:03;100653.56;;;8.41;100.00
9141;BME280;46330;50.822;7.126;2023-12-28T04:56:31;100648.34;;;8.42;100.00
9141;BME280;46330;50.822;7.126;2023-12-28T04:59:00;100643.97;;;8.44;100.00
9141;BME280;46330;50.822;7.126;2023-12-28T05:01:28;100648.28;;;8.47;100.00
9141;BME280;46330;50.822;7.126;2023-12-28T05:03:58;100652.66;;;8.45;100.00
9141;BME280;46330;50.822;7.126;2023-12-28T05:06:27;100652.72;;;8.42;100.00
9141;BME280;46330;50.822;7.126;2023-12-28T05:08:56;100645.72;;;8.44;100.00
9141;BME280;46330;50.822;7.126;2023-12-28T05:11:24;100653.56;;;8.42;100.00
9141;BME280;46330;50.822;7.126;2023-12-28T05:13:51;100657.94;;;8.40;100.00
9141;BME280;46330;50.822;7.126;2023-12-28T05:16:21;100664.00;;;8.41;100.00
9141;BME280;46330;50.822;7.126;2023-12-28T05:18:49;100670.06;;;8.46;100.00
9141;BME280;46330;50.822;7.126;2023-12-28T05:21:17;100664.81;;;8.47;100.00
9141;BME280;46330;50.822;7.126;2023-12-28T05:23:46;100682.16;;;8.51;100.00
9141;BME280;46330;50.822;7.126;2023-12-28T05:26:14;100682.22;;;8.45;100.00
9141;BME280;46330;50.822;7.126;2023-12-28T05:28:42;100686.56;;;8.45;100.00
9141;BME280;46330;50.822;7.126;2023-12-28T05:31:09;100687.44;;;8.42;100.00
9141;BME280;46330;50.822;7.126;2023-12-28T05:33:40;100689.19;;;8.42;100.00
9141;BME280;46330;50.822;7.126;2023-12-28T05:36:08;100684.84;;;8.42;100.00
9141;BME280;46330;50.822;7.126;2023-12-28T05:38:37;100687.44;;;8.41;100.00
9141;BME280;46330;50.822;7.126;2023-12-28T05:41:05;100684.88;;;8.38;100.00
9141;BME280;46330;50.822;7.126;2023-12-28T05:43:33;100689.25;;;8.37;100.00
9141;BME280;46330;50.822;7.126;2023-12-28T05:46:01;100697.09;;;8.34;100.00
9141;BME280;46330;50.822;7.126;2023-12-28T05:48:29;100698.84;;;8.34;100.00
9141;BME280;46330;50.822;7.126;2023-12-28T05:50:58;100701.50;;;8.28;100.00
9141;BME280;46330;50.822;7.126;2023-12-28T05:53:26;100699.72;;;8.27;100.00
9141;BME280;46330;50.822;7.126;2023-12-28T05:55:55;100718.00;;;8.24;100.00
9141;BME280;46330;50.822;7.126;2023-12-28T05:58:23;100713.66;;;8.24;100.00
9141;BME280;46330;50.822;7.126;2023-12-28T06:00:51;100716.28;;;8.21;100.00
9141;BME280;46330;50.822;7.126;2023-12-28T06:03:21;100713.72;;;8.18;100.00
9141;BME280;46330;50.822;7.126;2023-12-28T06:05:49;100721.53;;;8.17;100.00
9141;BME280;46330;50.822;7.126;2023-12-28T06:08:18;100717.22;;;8.16;100.00
9141;BME280;46330;50.822;7.126;2023-12-28T06:10:46;100725.03;;;8.16;100.00
9141;BME280;46330;50.822;7.126;2023-12-28T06:13:13;100731.13;;;8.11;100.00
9141;BME280;46330;50.822;7.126;2023-12-28T06:15:41;100728.53;;;8.07;100.00
9141;BME280;46330;50.822;7.126;2023-12-28T06:18:10;100731.16;;;8.07;100.00
9141;BME280;46330;50.822;7.126;2023-12-28T06:20:38;100726.00;;;7.99;100.00
9141;BME280;46330;50.822;7.126;2023-12-28T06:23:06;100730.34;;;7.97;100.00
9141;BME280;46330;50.822;7.126;2023-12-28T06:25:36;100728.63;;;7.95;100.00
9141;BME280;46330;50.822;7.126;2023-12-28T06:28:05;100727.81;;;7.90;100.00
9141;BME280;46330;50.822;7.126;2023-12-28T06:30:33;100734.72;;;7.91;100.00
9141;BME280;46330;50.822;7.126;2023-12-28T06:33:02;100733.88;;;7.89;100.00
9141;BME280;46330;50.822;7.126;2023-12-28T06:35:30;100740.84;;;7.90;100.00
9141;BME280;46330;50.822;7.126;2023-12-28T06:37:57;100753.84;;;7.88;100.00
9141;BME280;46330;50.822;7.126;2023-12-28T06:40:26;100758.19;;;7.88;100.00
9141;BME280;46330;50.822;7.126;2023-12-28T06:42:55;100752.16;;;7.83;100.00
9141;BME280;46330;50.822;7.126;2023-12-28T06:45:23;100752.97;;;7.92;100.00
9141;BME280;46330;50.822;7.126;2023-12-28T06:47:55;100746.88;;;7.96;100.00
9141;BME280;46330;50.822;7.126;2023-12-28T06:50:23;100738.19;;;7.96;100.00
9141;BME280;46330;50.822;7.126;2023-12-28T06:52:51;100746.00;;;7.96;100.00
9141;BME280;46330;50.822;7.126;2023-12-28T06:55:19;100742.56;;;7.92;100.00
9141;BME280;46330;50.822;7.126;2023-12-28T06:57:47;100743.41;;;7.91;100.00
9141;BME280;46330;50.822;7.126;2023-12-28T07:00:17;100738.19;;;7.94;100.00
9141;BME280;46330;50.822;7.126;2023-12-28T07:02:45;100738.22;;;7.93;100.00
9141;BME280;46330;50.822;7.126;2023-12-28T07:05:13;100739.97;;;7.89;100.00
9141;BME280;46330;50.822;7.126;2023-12-28T07:07:41;100743.47;;;7.85;100.00
9141;BME280;46330;50.822;7.126;2023-12-28T07:10:09;100744.34;;;7.84;100.00
9141;BME280;46330;50.822;7.126;2023-12-28T07:12:37;100745.19;;;7.85;100.00
9141;BME280;46330;50.822;7.126;2023-12-28T07:15:05;100740.00;;;7.83;100.00
9141;BME280;46330;50.822;7.126;2023-12-28T07:17:34;100746.97;;;7.84;100.00
9141;BME280;46330;50.822;7.126;2023-12-28T07:20:03;100750.38;;;7.88;99.84
9141;BME280;46330;50.822;7.126;2023-12-28T07:22:31;100760.78;;;7.94;100.00
9141;BME280;46330;50.822;7.126;2023-12-28T07:24:58;100759.06;;;7.88;100.00
9141;BME280;46330;50.822;7.126;2023-12-28T07:27:26;100773.00;;;7.83;100.00
9141;BME280;46330;50.822;7.126;2023-12-28T07:29:54;100767.84;;;7.78;100.00
9141;BME280;46330;50.822;7.126;2023-12-28T07:32:22;100773.09;;;7.68;100.00
9141;BME280;46330;50.822;7.126;2023-12-28T07:34:54;100776.63;;;7.53;100.00
9141;BME280;46330;50.822;7.126;2023-12-28T07:37:22;100776.69;;;7.42;100.00
9141;BME280;46330;50.822;7.126;2023-12-28T07:39:50;100775.00;;;7.29;100.00
9141;BME280;46330;50.822;7.126;2023-12-28T07:42:18;100778.50;;;7.15;100.00
9141;BME280;46330;50.822;7.126;2023-12-28T07:44:45;100780.28;;;7.10;100.00
9141;BME280;46330;50.822;7.126;2023-12-28T07:47:13;100775.06;;;7.00;100.00
9141;BME280;46330;50.822;7.126;2023-12-28T07:49:41;100776.84;;;6.95;100.00
9141;BME280;46330;50.822;7.126;2023-12-28T07:52:11;100775.09;;;6.96;100.00
9141;BME280;46330;50.822;7.126;2023-12-28T07:54:39;100783.75;;;6.98;100.00
9141;BME280;46330;50.822;7.126;2023-12-28T07:57:07;100782.88;;;7.00;100.00
9141;BME280;46330;50.822;7.126;2023-12-28T07:59:35;100787.25;;;6.94;100.00
9141;BME280;46330;50.822;7.126;2023-12-28T08:02:03;100792.44;;;6.92;100.00
9141;BME280;46330;50.822;7.126;2023-12-28T08:04:31;100787.25;;;7.00;100.00
9141;BME280;46330;50.822;7.126;2023-12-28T08:06:59;100782.91;;;7.03;100.00
9141;BME280;46330;50.822;7.126;2023-12-28T08:09:28;100800.22;;;7.03;100.00
9141;BME280;46330;50.822;7.126;2023-12-28T08:11:56;100792.41;;;7.06;100.00
9141;BME280;46330;50.822;7.126;2023-12-28T08:14:24;100801.06;;;7.11;100.00
9141;BME280;46330;50.822;7.126;2023-12-28T08:16:52;100798.44;;;7.14;100.00
9141;BME280;46330;50.822;7.126;2023-12-28T08:19:19;100801.06;;;7.11;100.00
9141;BME280;46330;50.822;7.126;2023-12-28T08:21:47;100804.53;;;7.07;100.00
9141;BME280;46330;50.822;7.126;2023-12-28T08:24:15;100813.22;;;7.04;100.00
9141;BME280;46330;50.822;7.126;2023-12-28T08:26:45;100820.16;;;7.09;100.00
9141;BME280;46330;50.822;7.126;2023-12-28T08:29:13;100828.81;;;7.11;100.00
9141;BME280;46330;50.822;7.126;2023-12-28T08:31:41;100827.06;;;7.08;100.00
9141;BME280;46330;50.822;7.126;2023-12-28T08:34:13;100832.22;;;7.31;100.00
9141;BME280;46330;50.822;7.126;2023-12-28T08:36:42;100826.13;;;7.44;100.00
9141;BME280;46330;50.822;7.126;2023-12-28T08:39:10;100831.28;;;7.53;100.00
9141;BME280;46330;50.822;7.126;2023-12-28T08:41:38;100831.19;;;7.70;100.00
9141;BME280;46330;50.822;7.126;2023-12-28T08:44:07;100827.59;;;7.98;100.00
9141;BME280;46330;50.822;7.126;2023-12-28T08:46:35;100830.88;;;8.29;98.69
9141;BME280;46330;50.822;7.126;2023-12-28T08:49:03;100823.84;;;8.46;97.14
9141;BME280;46330;50.822;7.126;2023-12-28T08:51:31;100820.22;;;8.60;96.32
9141;BME280;46330;50.822;7.126;2023-12-28T08:53:59;100823.50;;;8.82;95.40
9141;BME280;46330;50.822;7.126;2023-12-28T08:56:27;100828.50;;;9.05;93.52
9141;BME280;46330;50.822;7.126;2023-12-28T08:58:54;100837.88;;;9.23;92.41
9141;BME280;46330;50.822;7.126;2023-12-28T09:01:24;100833.38;;;9.40;92.29
9141;BME280;46330;50.822;7.126;2023-12-28T09:03:53;100833.94;;;9.63;90.64
9141;BME280;46330;50.822;7.126;2023-12-28T09:06:22;100830.28;;;9.76;89.25
9141;BME280;46330;50.822;7.126;2023-12-28T09:08:51;100839.66;;;9.92;88.89
9141;BME280;46330;50.822;7.126;2023-12-28T09:11:20;100841.50;;;9.84;87.64
9141;BME280;46330;50.822;7.126;2023-12-28T09:13:48;100836.94;;;10.01;86.99
9141;BME280;46330;50.822;7.126;2023-12-28T09:16:16;100842.38;;;9.86;87.20
9141;BME280;46330;50.822;7.126;2023-12-28T09:18:45;100842.25;;;9.95;86.69
9141;BME280;46330;50.822;7.126;2023-12-28T09:21:13;100849.81;;;10.12;86.87
9141;BME280;46330;50.822;7.126;2023-12-28T09:23:41;100849.81;;;10.12;86.24
9141;BME280;46330;50.822;7.126;2023-12-28T09:26:09;100851.66;;;10.07;86.55
9141;BME280;46330;50.822;7.126;2023-12-28T09:28:37;100847.22;;;10.12;86.39
9141;BME280;46330;50.822;7.126;2023-12-28T09:31:07;100856.78;;;10.17;86.11
9141;BME280;46330;50.822;7.126;2023-12-28T09:33:35;100859.34;;;10.19;85.91
9141;BME280;46330;50.822;7.126;2023-12-28T09:36:05;100864.63;;;10.16;85.13
9141;BME280;46330;50.822;7.126;2023-12-28T09:38:34;100865.19;;;10.38;85.06
9141;BME280;46330;50.822;7.126;2023-12-28T09:41:10;100872.78;;;10.53;83.90
9141;BME280;46330;50.822;7.126;2023-12-28T09:43:45;100872.47;;;10.72;83.80
9141;BME280;46330;50.822;7.126;2023-12-28T09:46:14;100876.69;;;10.81;81.44
9141;BME280;46330;50.822;7.126;2023-12-28T09:48:42;100868.53;;;11.01;80.97
9141;BME280;46330;50.822;7.126;2023-12-28T09:51:11;100866.66;;;11.06;80.68
9141;BME280;46330;50.822;7.126;2023-12-28T09:53:43;100854.53;;;11.02;80.58
9141;BME280;46330;50.822;7.126;2023-12-28T09:56:12;100866.38;;;11.21;79.19
9141;BME280;46330;50.822;7.126;2023-12-28T09:58:42;100851.50;;;11.24;78.40
9141;BME280;46330;50.822;7.126;2023-12-28T10:01:14;100857.81;;;11.13;78.64
9141;BME280;46330;50.822;7.126;2023-12-28T10:03:42;100863.09;;;11.11;78.43
9141;BME280;46330;50.822;7.126;2023-12-28T10:06:11;100861.97;;;11.24;78.80
9141;BME280;46330;50.822;7.126;2023-12-28T10:08:45;100864.47;;;11.30;77.03
9141;BME280;46330;50.822;7.126;2023-12-28T10:11:14;100855.09;;;11.20;76.81
9141;BME280;46330;50.822;7.126;2023-12-28T10:13:42;100869.47;;;11.44;76.03
9141;BME280;46330;50.822;7.126;2023-12-28T10:16:11;100861.28;;;11.61;75.78
9141;BME280;46330;50.822;7.126;2023-12-28T10:18:40;100853.50;;;11.58;74.30
9141;BME280;46330;50.822;7.126;2023-12-28T10:21:09;100852.06;;;11.86;73.65
9141;BME280;46330;50.822;7.126;2023-12-28T10:23:38;100847.97;;;11.71;73.74
9141;BME280;46330;50.822;7.126;2023-12-28T10:26:07;100839.19;;;11.74;73.02
9141;BME280;46330;50.822;7.126;2023-12-28T10:28:36;100828.94;;;12.03;72.45
9141;BME280;46330;50.822;7.126;2023-12-28T10:31:04;100833.09;;;12.13;70.89
9141;BME280;46330;50.822;7.126;2023-12-28T10:33:36;100831.09;;;12.24;70.03
9141;BME280;46330;50.822;7.126;2023-12-28T10:36:07;100824.88;;;12.28;70.19
9141;BME280;46330;50.822;7.126;2023-12-28T10:38:38;100835.47;;;12.61;68.72
9141;BME280;46330;50.822;7.126;2023-12-28T10:41:10;100831.81;;;12.31;68.33
9141;BME280;46330;50.822;7.126;2023-12-28T10:43:45;100829.81;;;12.42;68.30
9141;BME280;46330;50.822;7.126;2023-12-28T10:46:22;100830.84;;;12.70;66.58
9141;BME280;46330;50.822;7.126;2023-12-28T10:48:58;100819.66;;;12.64;64.98
9141;BME280;46330;50.822;7.126;2023-12-28T10:51:27;100826.53;;;12.68;65.07
9141;BME280;46330;50.822;7.126;2023-12-28T10:54:05;100824.75;;;13.04;63.66
9141;BME280;46330;50.822;7.126;2023-12-28T10:56:42;100831.69;;;13.06;63.09
9141;BME280;46330;50.822;7.126;2023-12-28T10:59:17;100814.28;;;13.02;64.09
9141;BME280;46330;50.822;7.126;2023-12-28T11:01:51;100819.94;;;12.87;63.90
9141;BME280;46330;50.822;7.126;2023-12-28T11:04:24;100822.78;;;12.78;62.56
9141;BME280;46330;50.822;7.126;2023-12-28T11:06:54;100815.53;;;12.87;63.41
9141;BME280;46330;50.822;7.126;2023-12-28T11:09:26;100809.13;;;13.31;61.20
9141;BME280;46330;50.822;7.126;2023-12-28T11:11:58;100807.56;;;13.26;60.11
9141;BME280;46330;50.822;7.126;2023-12-28T11:14:27;100811.41;;;13.43;59.87
9141;BME280;46330;50.822;7.126;2023-12-28T11:16:55;100808.25;;;13.32;59.62
9141;BME280;46330;50.822;7.126;2023-12-28T11:19:27;100802.09;;;13.63;60.65
9141;BME280;46330;50.822;7.126;2023-12-28T11:21:57;100798.38;;;13.40;59.49
9141;BME280;46330;50.822;7.126;2023-12-28T11:24:28;100795.78;;;13.07;59.86
9141;BME280;46330;50.822;7.126;2023-12-28T11:26:57;100798.22;;;13.45;60.35
9141;BME280;46330;50.822;7.126;2023-12-28T11:29:25;100785.06;;;13.16;59.39
9141;BME280;46330;50.822;7.126;2023-12-28T11:31:53;100777.56;;;13.33;59.02
9141;BME280;46330;50.822;7.126;2023-12-28T11:34:24;100785.81;;;12.87;60.01
9141;BME280;46330;50.822;7.126;2023-12-28T11:36:55;100781.38;;;13.23;60.26
9141;BME280;46330;50.822;7.126;2023-12-28T11:39:31;100798.03;;;13.53;58.27
9141;BME280;46330;50.822;7.126;2023-12-28T11:42:01;100787.31;;;13.59;58.95
9141;BME280;46330;50.822;7.126;2023-12-28T11:44:31;100794.34;;;13.27;59.03
9141;BME280;46330;50.822;7.126;2023-12-28T11:46:59;100787.16;;;13.65;58.18
9141;BME280;46330;50.822;7.126;2023-12-28T11:49:27;100787.72;;;13.45;58.38
9141;BME280;46330;50.822;7.126;2023-12-28T11:51:57;100783.84;;;13.58;56.92
9141;BME280;46330;50.822;7.126;2023-12-28T11:54:26;100785.06;;;13.46;57.77
9141;BME280;46330;50.822;7.126;2023-12-28T11:56:56;100783.25;;;13.78;57.23
9141;BME280;46330;50.822;7.126;2023-12-28T11:59:24;100772.41;;;13.59;56.97
9141;BME280;46330;50.822;7.126;2023-12-28T12:01:52;100775.84;;;13.61;56.57
9141;BME280;46330;50.822;7.126;2023-12-28T12:04:21;100777.84;;;13.53;57.54
9141;BME280;46330;50.822;7.126;2023-12-28T12:06:49;100782.50;;;13.43;57.66
9141;BME280;46330;50.822;7.126;2023-12-28T12:09:19;100773.81;;;13.11;57.82
9141;BME280;46330;50.822;7.126;2023-12-28T12:11:51;100769.66;;;13.33;57.88
9141;BME280;46330;50.822;7.126;2023-12-28T12:14:21;100771.13;;;13.44;57.78
9141;BME280;46330;50.822;7.126;2023-12-28T12:16:49;100760.06;;;13.63;56.45
9141;BME280;46330;50.822;7.126;2023-12-28T12:19:19;100749.22;;;13.44;57.87
9141;BME280;46330;50.822;7.126;2023-12-28T12:21:47;100759.41;;;13.25;57.42
9141;BME280;46330;50.822;7.126;2023-12-28T12:24:17;100753.00;;;13.34;57.50
9141;BME280;46330;50.822;7.126;2023-12-28T12:26:45;100760.22;;;13.27;58.23
9141;BME280;46330;50.822;7.126;2023-12-28T12:29:13;100752.38;;;13.55;57.81
9141;BME280;46330;50.822;7.126;2023-12-28T12:31:44;100761.50;;;13.13;57.60
9141;BME280;46330;50.822;7.126;2023-12-28T12:34:15;100748.94;;;12.91;58.13
9141;BME280;46330;50.822;7.126;2023-12-28T12:36:44;100748.56;;;12.73;58.34
9141;BME280;46330;50.822;7.126;2023-12-28T12:39:13;100762.84;;;12.61;58.55
9141;BME280;46330;50.822;7.126;2023-12-28T12:41:41;100768.16;;;12.58;60.23
9141;BME280;46330;50.822;7.126;2023-12-28T12:44:09;100753.16;;;12.97;59.42
9141;BME280;46330;50.822;7.126;2023-12-28T12:46:37;100754.31;;;13.19;58.86
9141;BME280;46330;50.822;7.126;2023-12-28T12:49:07;100741.09;;;13.22;58.54
9141;BME280;46330;50.822;7.126;2023-12-28T12:51:35;100742.97;;;13.17;57.42
9141;BME280;46330;50.822;7.126;2023-12-28T12:54:03;100733.72;;;13.04;58.51
9141;BME280;46330;50.822;7.126;2023-12-28T12:56:31;100728.81;;;12.92;59.17
9141;BME280;46330;50.822;7.126;2023-12-28T12:58:59;100737.22;;;13.03;59.43
9141;BME280;46330;50.822;7.126;2023-12-28T13:01:27;100734.53;;;13.05;59.51
9141;BME280;46330;50.822;7.126;2023-12-28T13:03:55;100739.22;;;12.61;60.09
9141;BME280;46330;50.822;7.126;2023-12-28T13:06:25;100739.91;;;12.69;60.28
9141;BME280;46330;50.822;7.126;2023-12-28T13:08:53;100740.78;;;12.70;60.03
9141;BME280;46330;50.822;7.126;2023-12-28T13:11:21;100733.88;;;12.32;60.73